Terminal Aerodrome Forecast
Issued by NWS St Louis, MO

Home | Current Version | Previous Version | Text Only | Print | Product List | Glossary On
Versions: 1 2 3 4 5 6 7 8 9 10 11 12 13 14 15 16 17 18 19 20 21 22 23 24 25 26 27 28
000
FTUS43 KLSX 241200 AAA
TAFCOU
TAF AMD
KCOU 241204Z 2412/2512 05012G22KT 5SM -RA OVC005
     FM241600 10013G22KT P6SM OVC030
     FM250000 14012G22KT P6SM BKN030
      TEMPO 2500/2502 3SM TSRA OVC020CB
     FM250200 25012G22KT P6SM SCT020=

USA.gov is the U.S. government's official web portal to all federal, state and local government web resources and services.